createdAt,value
2023-10-24T00:03:37.526Z,4175.6
2023-10-24T00:09:12.831Z,4175.9
2023-10-24T00:14:48.479Z,4173.8
2023-10-24T00:20:24.087Z,4174.1
2023-10-24T00:25:59.827Z,4174.4
2023-10-24T00:31:36.931Z,4173.6
2023-10-24T00:37:12.576Z,4174.6
2023-10-24T00:42:47.977Z,4172.1
2023-10-24T00:48:23.748Z,4175.1
2023-10-24T00:53:58.949Z,4174.3
2023-10-24T00:59:34.395Z,4171.9
2023-10-24T01:05:09.752Z,4171.8
2023-10-24T01:10:46.033Z,4172.8
2023-10-24T01:16:23.236Z,4170.6
2023-10-24T01:21:58.900Z,4173.1
2023-10-24T01:27:34.765Z,4172.6
2023-10-24T01:33:10.784Z,4170.6
2023-10-24T01:38:46.535Z,4170.6
2023-10-24T01:44:21.831Z,4170.1
2023-10-24T01:49:56.647Z,4169.2
2023-10-24T01:55:32.903Z,4168.6
2023-10-24T02:01:09.928Z,4170.1
2023-10-24T02:06:45.738Z,4168.9
2023-10-24T02:12:21.592Z,4169.1
2023-10-24T02:17:57.144Z,4168.6
2023-10-24T02:23:32.600Z,4171.1
2023-10-24T02:29:07.988Z,4166.4
2023-10-24T02:34:45.686Z,4168.4
2023-10-24T02:40:21.584Z,4168.6
2023-10-24T02:45:57.686Z,4171.1
2023-10-24T02:51:33.596Z,4167.6
2023-10-24T02:57:09.302Z,4165.7
2023-10-24T03:02:44.805Z,4166.2
2023-10-24T03:08:20.448Z,4165.2
2023-10-24T03:13:56.138Z,4166.6
2023-10-24T03:19:32.563Z,4166.2
2023-10-24T03:25:08.373Z,4168.7
2023-10-24T03:30:43.981Z,4164.9
2023-10-24T03:36:20.172Z,4165.7
2023-10-24T03:41:56.233Z,4165.4
2023-10-24T03:47:32.421Z,4165.7
2023-10-24T03:53:08.417Z,4164
2023-10-24T03:58:44.605Z,4161.9
2023-10-24T04:04:20.281Z,4161.7
2023-10-24T04:09:55.579Z,4161.4
2023-10-24T04:15:31.160Z,4162.9
2023-10-24T04:21:06.868Z,4162.5
2023-10-24T04:26:42.712Z,4162.7
2023-10-24T04:32:17.892Z,4161
2023-10-24T04:37:53.416Z,4160.9
2023-10-24T04:43:29.218Z,4159
2023-10-24T04:49:04.861Z,4160.5
2023-10-24T04:54:41.715Z,4158.5
2023-10-24T05:00:17.378Z,4160.7
2023-10-24T05:05:52.511Z,4162.9
2023-10-24T05:11:27.432Z,4159.4
2023-10-24T05:17:03.860Z,4159.7
2023-10-24T05:22:40.193Z,4156.2
2023-10-24T05:28:16.889Z,4159.9
2023-10-24T05:33:52.790Z,4160
2023-10-24T05:39:28.467Z,4158.9
2023-10-24T05:45:04.417Z,4156.8
2023-10-24T05:50:40.671Z,4158.2
2023-10-24T05:56:17.744Z,4156.8
2023-10-24T06:01:54.590Z,4158
2023-10-24T06:07:30.630Z,4156.3
2023-10-24T06:13:06.088Z,4155
2023-10-24T06:18:41.597Z,4157.4
2023-10-24T06:24:17.229Z,4152.8
2023-10-24T06:29:53.701Z,4155.5
2023-10-24T06:35:29.178Z,4155.3
2023-10-24T06:41:04.351Z,4158.4
2023-10-24T06:46:40.126Z,4157
2023-10-24T06:52:15.623Z,4157.4
2023-10-24T06:57:50.840Z,4161.9
2023-10-24T07:03:27.687Z,4158.4
2023-10-24T07:09:03.192Z,4160.4
2023-10-24T07:14:38.813Z,4180.5
2023-10-24T07:20:14.300Z,4176.9
2023-10-24T07:25:50.642Z,4214.5
2023-10-24T07:31:27.532Z,4195.2
2023-10-24T07:37:03.195Z,4206.9
2023-10-24T07:42:38.926Z,4211.8
2023-10-24T07:48:15.835Z,4207.4
2023-10-24T07:53:51.347Z,4202.9
2023-10-24T07:59:26.390Z,4199.1
2023-10-24T08:05:03.631Z,4195.9
2023-10-24T08:10:39.616Z,4187.2
2023-10-24T08:16:15.478Z,4193
2023-10-24T08:21:51.362Z,4199.1
2023-10-24T08:27:27.378Z,4200.1
2023-10-24T08:33:03.883Z,4215.1
2023-10-24T08:38:39.526Z,4201.7
2023-10-24T08:44:14.905Z,4209.3
2023-10-24T08:49:51.360Z,4208.8
2023-10-24T08:55:27.848Z,4206.8
2023-10-24T09:01:04.605Z,4209.1
2023-10-24T09:06:40.220Z,4216.6
2023-10-24T09:12:16.432Z,4224.4
2023-10-24T09:17:54.611Z,4208.3
2023-10-24T09:23:30.583Z,4208.1
2023-10-24T09:29:07.070Z,4230.9
2023-10-24T09:34:43.830Z,4213.8
2023-10-24T09:40:19.661Z,4213.3
2023-10-24T09:45:55.802Z,4210.4
2023-10-24T09:51:31.367Z,4224.4
2023-10-24T09:57:06.565Z,4220.5
2023-10-24T10:02:44.350Z,4208.8
2023-10-24T10:08:20.825Z,4222.5
2023-10-24T10:13:56.598Z,4219.3
2023-10-24T10:19:32.722Z,4229
2023-10-24T10:25:08.615Z,4211.8
2023-10-24T10:33:15.126Z,4227.2
2023-10-24T10:38:52.094Z,4224.4
2023-10-24T10:44:27.426Z,4223.2
2023-10-24T10:50:02.942Z,4226.9
2023-10-24T10:55:38.924Z,4224.2
2023-10-24T11:01:14.804Z,4222.7
2023-10-24T11:06:50.088Z,4228.5
2023-10-24T11:12:25.732Z,4217
2023-10-24T11:18:01.778Z,4222.3
2023-10-24T11:23:37.185Z,4223.7
2023-10-24T11:29:13.244Z,4220.3
2023-10-24T11:34:49.338Z,4226.5
2023-10-24T11:40:24.788Z,4217
2023-10-24T11:46:01.851Z,4229.9
2023-10-24T11:51:37.972Z,4226.5
2023-10-24T11:57:13.438Z,4221
2023-10-24T12:02:49.584Z,4225.9
2023-10-24T12:08:26.412Z,4220.8
2023-10-24T12:14:01.915Z,4226.4
2023-10-24T12:19:44.159Z,4229
2023-10-24T12:25:24.232Z,4218.8
2023-10-24T12:31:00.978Z,4230.2
2023-10-24T12:36:36.798Z,4228.9
2023-10-24T12:42:12.512Z,4228.7
2023-10-24T12:47:48.623Z,4225.5
2023-10-24T12:53:24.417Z,4225.9
2023-10-24T12:59:00.163Z,4218.7
2023-10-24T13:04:35.967Z,4222.2
2023-10-24T13:10:11.695Z,4224
2023-10-24T13:15:47.842Z,4231
2023-10-24T13:21:23.843Z,4229.5
2023-10-24T13:26:59.598Z,4232.4
2023-10-24T13:32:37.504Z,4223.3
2023-10-24T13:38:13.723Z,4223.8
2023-10-24T13:43:49.831Z,4223.3
2023-10-24T13:49:24.999Z,4222.8
2023-10-24T13:55:00.113Z,4228.2
2023-10-24T14:00:35.876Z,4226.5
2023-10-24T14:06:11.929Z,4214.6
2023-10-24T14:11:47.487Z,4214
2023-10-24T14:17:23.008Z,4217.6
2023-10-24T14:22:58.673Z,4214.3
2023-10-24T14:28:34.838Z,4215.5
2023-10-24T14:34:10.365Z,4216.1
2023-10-24T14:39:45.759Z,4208.1
2023-10-24T14:45:22.270Z,4214.5
2023-10-24T14:50:57.960Z,4207.8
2023-10-24T14:56:33.029Z,4205.8
2023-10-24T15:02:08.877Z,4204.9
2023-10-24T15:07:45.022Z,4214.1
2023-10-24T15:13:20.510Z,4216.5
2023-10-24T15:18:55.401Z,4213.6
2023-10-24T15:24:30.657Z,4213.1
2023-10-24T15:30:06.296Z,4209.8
2023-10-24T15:35:41.568Z,4210.6
2023-10-24T15:41:18.776Z,4205.1
2023-10-24T15:46:54.672Z,4205.1
2023-10-24T15:52:29.873Z,4209.9
2023-10-24T15:58:08.135Z,4206.9
2023-10-24T16:03:45.176Z,4206.9
2023-10-24T16:09:20.784Z,4201.2
2023-10-24T16:14:56.157Z,4201.7
2023-10-24T16:20:31.769Z,4200.4
2023-10-24T16:26:07.867Z,4197.9
2023-10-24T16:31:44.388Z,4199.2
2023-10-24T16:37:19.789Z,4198.9
2023-10-24T16:42:55.500Z,4197.2
2023-10-24T16:48:30.888Z,4199.1
2023-10-24T16:54:06.086Z,4196.4
2023-10-24T16:59:41.180Z,4198.1
2023-10-24T17:05:17.674Z,4199.7
2023-10-24T17:10:54.322Z,4195
2023-10-24T17:16:31.305Z,4194.7
2023-10-24T17:22:07.591Z,4192.4
2023-10-24T17:27:43.052Z,4194.2
2023-10-24T17:33:19.284Z,4195
2023-10-24T17:38:54.746Z,4194
2023-10-24T17:44:29.965Z,4191.5
2023-10-24T17:50:06.065Z,4193
2023-10-24T17:55:43.899Z,4193.4
2023-10-24T18:01:19.985Z,4192.7
2023-10-24T18:06:54.979Z,4191.9
2023-10-24T18:12:30.902Z,4190.9
2023-10-24T18:18:07.654Z,4195.2
2023-10-24T18:23:43.173Z,4190.3
2023-10-24T18:29:18.992Z,4191
2023-10-24T18:34:55.289Z,4194
2023-10-24T18:40:30.793Z,4186.7
2023-10-24T18:46:07.238Z,4184.8
2023-10-24T18:51:42.486Z,4189.7
2023-10-24T18:57:17.692Z,4191
2023-10-24T19:02:55.680Z,4189.2
2023-10-24T19:08:30.952Z,4187.3
2023-10-24T19:14:07.520Z,4189.5
2023-10-24T19:19:45.321Z,4187.7
2023-10-24T19:25:21.581Z,4187.7
2023-10-24T19:30:59.537Z,4190.3
2023-10-24T19:36:35.434Z,4185
2023-10-24T19:42:10.868Z,4185.8
2023-10-24T19:47:50.039Z,4182
2023-10-24T19:53:26.448Z,4183.6
2023-10-24T19:59:02.596Z,4184
2023-10-24T20:04:39.659Z,4184.8
2023-10-24T20:12:47.358Z,4186.5
2023-10-24T20:18:25.262Z,4182.1
2023-10-24T20:24:00.972Z,4185.8
2023-10-24T20:29:38.488Z,4181.3
2023-10-24T20:35:14.646Z,4179.6
2023-10-24T20:40:50.506Z,4181.6
2023-10-24T20:46:27.246Z,4180.1
2023-10-24T20:52:03.135Z,4183
2023-10-24T20:57:40.156Z,4180.6
2023-10-24T21:03:16.669Z,4180
2023-10-24T21:08:53.385Z,4183.5
2023-10-24T21:14:29.457Z,4183.3
2023-10-24T21:20:05.525Z,4178.8
2023-10-24T21:25:41.528Z,4179.3
2023-10-24T21:31:18.635Z,4178.5
2023-10-24T21:36:55.819Z,4178.5
2023-10-24T21:42:32.781Z,4180.1
2023-10-24T21:48:09.276Z,4177.6
2023-10-24T21:53:52.315Z,4176.3
2023-10-24T21:59:28.984Z,4175.9
2023-10-24T22:05:04.794Z,4178.3
2023-10-24T22:10:40.949Z,4178.3
2023-10-24T22:16:18.366Z,4176.1
2023-10-24T22:21:55.121Z,4175.6
2023-10-24T22:27:31.341Z,4177.6
2023-10-24T22:33:08.575Z,4174.3
2023-10-24T22:38:45.080Z,4174.9
2023-10-24T22:44:21.919Z,4174.3
2023-10-24T22:49:58.980Z,4176.8
2023-10-24T22:55:35.460Z,4175.8
2023-10-24T23:01:12.846Z,4175.1
2023-10-24T23:06:49.509Z,4174.9
2023-10-24T23:12:25.748Z,4174.8
2023-10-24T23:18:02.364Z,4172.4
2023-10-24T23:23:38.441Z,4174.6
2023-10-24T23:29:14.823Z,4173.6
2023-10-24T23:34:50.856Z,4175.6
2023-10-24T23:40:27.694Z,4171.1
2023-10-24T23:46:03.689Z,4173.9
2023-10-24T23:51:40.876Z,4174.8
2023-10-24T23:57:20.239Z,4172.3
